Time;durP1;ratioP1;P1;durP2;ratioP2;P2;SDS_P1;SDS_P2;PMS_P1;PMS_P2;Temp;Humidity;BMP_temperature;BMP_pressure;BME280_temperature;BME280_humidity;BME280_pressure;Samples;Min_cycle;Max_cycle;Signal;HPM_P1;HPM_P2
2023/09/19 00:01:46;;;;;;;1.17;0.40;;;14.90;96.10;;;;;;5016818;28;20124;-80
2023/09/19 00:04:14;;;;;;;2.25;0.30;;;14.90;96.40;;;;;;5011619;28;20068;-80
2023/09/19 00:06:42;;;;;;;2.67;0.30;;;14.90;96.20;;;;;;5032519;28;20037;-80
2023/09/19 00:09:10;;;;;;;2.25;0.30;;;14.90;96.20;;;;;;5015912;28;20083;-80
2023/09/19 00:11:38;;;;;;;4.28;0.30;;;14.90;96.20;;;;;;5014080;28;20136;-80
2023/09/19 00:14:07;;;;;;;1.98;0.30;;;14.90;96.20;;;;;;4999707;28;20059;-80
2023/09/19 00:16:35;;;;;;;3.22;0.40;;;14.90;96.20;;;;;;5011433;28;20098;-80
2023/09/19 00:19:08;;;;;;;0.35;0.20;;;15.00;96.30;;;;;;5011720;28;20111;-80
2023/09/19 00:21:37;;;;;;;0.93;0.28;;;15.00;96.20;;;;;;5012201;28;20042;-80
2023/09/19 00:24:06;;;;;;;1.73;0.40;;;15.00;96.20;;;;;;4997030;28;20056;-80
2023/09/19 00:26:34;;;;;;;2.50;0.40;;;15.00;96.20;;;;;;5009653;28;20041;-79
2023/09/19 00:29:08;;;;;;;2.97;0.60;;;15.00;96.20;;;;;;5029753;28;20049;-80
2023/09/19 00:31:37;;;;;;;2.70;0.45;;;15.10;96.20;;;;;;5014943;28;20053;-80
2023/09/19 00:34:05;;;;;;;2.47;0.40;;;15.20;96.30;;;;;;4984922;28;20065;-80
2023/09/19 00:36:33;;;;;;;4.15;0.70;;;15.20;96.20;;;;;;4983815;28;20088;-80
2023/09/19 00:39:06;;;;;;;1.27;0.30;;;15.20;96.20;;;;;;5045751;28;20159;-80
2023/09/19 00:41:35;;;;;;;3.25;0.40;;;15.20;96.20;;;;;;5022982;28;20049;-80
2023/09/19 00:44:03;;;;;;;1.15;0.40;;;15.20;96.20;;;;;;5034250;28;20033;-80
2023/09/19 00:46:32;;;;;;;2.10;0.55;;;15.20;96.20;;;;;;5037687;28;20474;-80
2023/09/19 00:49:00;;;;;;;2.22;0.57;;;15.30;96.30;;;;;;5023216;28;20045;-80
2023/09/19 00:51:27;;;;;;;3.35;0.50;;;15.30;96.30;;;;;;4997782;28;20049;-80
2023/09/19 00:53:59;;;;;;;3.42;0.45;;;15.30;96.30;;;;;;4998599;28;20081;-80
2023/09/19 00:56:26;;;;;;;2.60;0.52;;;15.30;96.30;;;;;;5051154;28;20050;-80
2023/09/19 00:58:53;;;;;;;2.53;0.50;;;15.30;96.30;;;;;;4993763;28;20384;-80
2023/09/19 01:01:21;;;;;;;2.00;0.40;;;15.30;96.30;;;;;;4984593;28;20507;-80
2023/09/19 01:03:48;;;;;;;4.72;0.40;;;15.40;96.30;;;;;;5035033;28;20373;-80
2023/09/19 01:06:16;;;;;;;3.90;0.57;;;15.40;96.30;;;;;;5050752;28;20041;-79
2023/09/19 01:08:44;;;;;;;2.50;0.52;;;15.40;96.30;;;;;;4999237;28;20050;-80
2023/09/19 01:11:45;;;;;;;3.13;0.90;;;15.30;96.30;;;;;;5011345;28;20072;-80
2023/09/19 01:14:29;;;;;;;3.47;0.60;;;15.30;96.30;;;;;;4988611;28;20132;-80
2023/09/19 01:17:04;;;;;;;4.35;1.27;;;15.30;96.40;;;;;;5045315;28;20140;-80
2023/09/19 01:20:02;;;;;;;4.15;0.68;;;15.20;96.50;;;;;;5043941;28;20099;-79
2023/09/19 01:22:45;;;;;;;2.65;0.80;;;15.20;96.50;;;;;;5019592;28;20052;-80
2023/09/19 01:25:18;;;;;;;4.68;1.00;;;15.20;96.60;;;;;;5046333;28;20389;-80
2023/09/19 01:28:36;;;;;;;4.15;0.70;;;15.10;96.60;;;;;;5031196;28;20128;-80
2023/09/19 01:31:09;;;;;;;5.07;0.82;;;15.10;96.60;;;;;;5039182;28;20568;-80
2023/09/19 01:34:04;;;;;;;5.00;0.88;;;15.10;96.60;;;;;;5038030;28;20518;-79
2023/09/19 01:36:38;;;;;;;4.65;0.60;;;15.10;96.60;;;;;;5031621;28;20053;-80
2023/09/19 01:39:10;;;;;;;4.32;0.95;;;15.10;96.60;;;;;;5017160;28;20187;-80
2023/09/19 01:42:04;;;;;;;7.85;0.98;;;15.10;96.70;;;;;;5043719;28;20046;-84
2023/09/19 01:44:39;;;;;;;3.85;1.35;;;15.10;96.60;;;;;;5039966;28;20095;-84
2023/09/19 01:47:18;;;;;;;3.42;0.70;;;15.10;96.50;;;;;;5040578;28;20041;-84
2023/09/19 01:50:26;;;;;;;6.15;0.77;;;15.20;96.50;;;;;;5033546;28;20041;-84
2023/09/19 01:53:04;;;;;;;7.00;1.20;;;15.30;96.50;;;;;;5019728;28;20136;-84
2023/09/19 01:55:42;;;;;;;6.75;1.13;;;15.30;96.40;;;;;;5045150;28;20071;-84
2023/09/19 01:58:31;;;;;;;5.78;0.88;;;15.30;96.30;;;;;;5048894;28;20096;-84
2023/09/19 02:01:00;;;;;;;5.07;0.80;;;15.30;96.20;;;;;;5045846;28;20041;-85
2023/09/19 02:03:29;;;;;;;6.57;1.17;;;15.30;96.20;;;;;;5043889;28;20041;-84
2023/09/19 02:05:56;;;;;;;4.60;0.82;;;15.30;96.10;;;;;;5028579;28;20059;-84
2023/09/19 02:08:25;;;;;;;5.18;1.00;;;15.30;96.00;;;;;;4992257;28;20036;-84
2023/09/19 02:10:53;;;;;;;8.77;1.33;;;15.30;95.90;;;;;;5019485;28;20133;-84
2023/09/19 02:13:23;;;;;;;7.45;1.42;;;15.30;95.80;;;;;;5022430;28;20049;-85
2023/09/19 02:15:51;;;;;;;4.50;0.98;;;15.20;95.70;;;;;;5002187;28;20046;-85
2023/09/19 02:18:18;;;;;;;3.65;1.10;;;15.10;95.70;;;;;;5030486;28;20057;-84
2023/09/19 02:20:45;;;;;;;3.22;0.85;;;15.10;95.80;;;;;;5012980;28;20034;-84
2023/09/19 02:23:13;;;;;;;6.03;0.93;;;15.00;95.90;;;;;;5018772;28;20128;-84
2023/09/19 02:25:41;;;;;;;3.03;1.02;;;14.90;96.00;;;;;;4985852;28;20080;-84
2023/09/19 02:28:09;;;;;;;3.75;0.80;;;14.90;96.00;;;;;;5018042;28;20042;-84
2023/09/19 02:30:36;;;;;;;7.07;0.90;;;14.80;96.10;;;;;;5036625;28;20076;-84
2023/09/19 02:33:04;;;;;;;8.63;1.50;;;14.80;96.10;;;;;;5034299;28;20140;-84
2023/09/19 02:35:36;;;;;;;4.28;0.60;;;14.70;96.10;;;;;;4992241;28;20133;-84
2023/09/19 02:38:11;;;;;;;4.13;0.85;;;14.70;96.10;;;;;;5027717;28;20136;-84
2023/09/19 02:40:39;;;;;;;8.15;0.80;;;14.60;96.10;;;;;;5035180;28;20120;-84
2023/09/19 02:43:08;;;;;;;3.55;0.55;;;14.60;96.10;;;;;;5003768;28;20045;-84
2023/09/19 02:45:35;;;;;;;3.58;0.70;;;14.60;96.10;;;;;;5009541;28;20103;-84
2023/09/19 02:48:04;;;;;;;6.32;0.73;;;14.50;96.10;;;;;;5033416;28;20493;-85
2023/09/19 02:50:31;;;;;;;3.60;0.98;;;14.50;96.10;;;;;;4995886;28;20458;-85
2023/09/19 02:52:58;;;;;;;3.97;0.63;;;14.50;96.10;;;;;;5000173;28;20053;-85
2023/09/19 02:55:26;;;;;;;4.85;0.77;;;14.50;96.10;;;;;;5009126;28;20493;-84
2023/09/19 02:57:54;;;;;;;5.43;0.85;;;14.40;96.00;;;;;;5022124;28;20059;-85
2023/09/19 03:00:22;;;;;;;4.18;0.60;;;14.40;96.00;;;;;;4984554;28;20058;-84
2023/09/19 03:02:56;;;;;;;3.65;0.77;;;14.40;96.00;;;;;;5017255;28;20046;-84
2023/09/19 03:05:26;;;;;;;1.85;0.50;;;14.40;95.90;;;;;;5039766;28;20037;-84
2023/09/19 03:07:53;;;;;;;4.65;0.82;;;14.30;96.00;;;;;;5014664;28;20052;-85
2023/09/19 03:10:21;;;;;;;3.10;0.50;;;14.30;96.00;;;;;;5022073;28;20095;-85
2023/09/19 03:12:52;;;;;;;4.20;0.57;;;14.30;96.00;;;;;;5024989;28;20103;-85
2023/09/19 03:15:19;;;;;;;3.40;1.02;;;14.20;95.90;;;;;;5034538;28;20107;-85
2023/09/19 03:17:51;;;;;;;3.00;0.55;;;14.20;95.90;;;;;;5017246;28;20050;-80
2023/09/19 03:20:21;;;;;;;1.58;0.50;;;14.20;95.90;;;;;;5010655;28;20119;-80
2023/09/19 03:22:49;;;;;;;4.88;0.73;;;14.20;96.00;;;;;;5040658;28;20122;-80
2023/09/19 03:25:17;;;;;;;4.05;0.60;;;14.10;96.00;;;;;;5001524;28;20044;-80
2023/09/19 03:27:47;;;;;;;4.18;0.70;;;14.10;96.00;;;;;;5001677;28;20526;-80
2023/09/19 03:30:16;;;;;;;6.53;0.90;;;14.10;96.00;;;;;;4998303;28;20052;-80
2023/09/19 03:32:49;;;;;;;3.72;0.80;;;14.00;96.00;;;;;;5024718;28;20053;-80
2023/09/19 03:35:18;;;;;;;2.75;0.60;;;14.00;95.90;;;;;;5023679;28;20140;-80
2023/09/19 03:37:47;;;;;;;3.95;0.60;;;14.00;95.90;;;;;;5048150;28;20046;-80
2023/09/19 03:40:15;;;;;;;3.13;0.40;;;14.00;95.90;;;;;;5035254;28;20442;-80
2023/09/19 03:42:43;;;;;;;4.25;0.55;;;14.00;95.90;;;;;;5035454;28;20442;-80
2023/09/19 03:45:12;;;;;;;4.47;0.50;;;13.90;95.90;;;;;;5008254;28;20049;-80
2023/09/19 03:47:48;;;;;;;8.30;0.88;;;13.90;95.90;;;;;;5003310;28;20045;-81
2023/09/19 03:50:18;;;;;;;2.20;0.47;;;13.90;95.90;;;;;;4999383;28;20797;-80
2023/09/19 03:52:45;;;;;;;3.05;0.80;;;13.90;95.80;;;;;;5014861;28;20069;-80
2023/09/19 03:55:13;;;;;;;2.88;0.70;;;13.90;95.80;;;;;;4988125;28;20045;-80
2023/09/19 03:57:40;;;;;;;3.67;0.60;;;13.90;95.70;;;;;;5007114;28;20053;-80
2023/09/19 04:00:11;;;;;;;3.90;0.60;;;13.90;95.70;;;;;;5027063;28;20051;-80
2023/09/19 04:02:39;;;;;;;11.07;1.17;;;13.90;95.60;;;;;;5029798;28;20041;-80
2023/09/19 04:05:07;;;;;;;3.38;0.60;;;13.90;95.60;;;;;;5015396;28;20096;-80
2023/09/19 04:07:35;;;;;;;1.63;0.32;;;13.80;95.50;;;;;;5012862;28;20064;-80
2023/09/19 04:10:03;;;;;;;2.45;0.40;;;13.80;95.50;;;;;;5030326;28;20042;-80
2023/09/19 04:12:30;;;;;;;3.17;0.60;;;13.80;95.50;;;;;;5022366;28;20533;-84
2023/09/19 04:14:57;;;;;;;3.25;0.50;;;13.80;95.50;;;;;;4992100;28;20136;-84
2023/09/19 04:17:24;;;;;;;3.53;0.60;;;13.70;95.50;;;;;;5036912;28;20037;-85
2023/09/19 04:19:52;;;;;;;4.45;0.50;;;13.80;95.60;;;;;;5013492;28;20052;-84
2023/09/19 04:22:19;;;;;;;1.65;0.40;;;13.80;95.50;;;;;;5012993;28;20041;-84
2023/09/19 04:24:46;;;;;;;2.40;0.30;;;13.70;95.50;;;;;;4999749;28;20064;-84
2023/09/19 04:27:14;;;;;;;2.17;0.40;;;13.70;95.50;;;;;;4988219;28;20139;-85
2023/09/19 04:29:42;;;;;;;4.70;0.50;;;13.70;95.50;;;;;;4992590;28;20053;-85
2023/09/19 04:32:09;;;;;;;3.20;0.50;;;13.80;95.40;;;;;;5021585;28;20051;-84
2023/09/19 04:34:40;;;;;;;3.42;0.50;;;13.80;95.40;;;;;;5032112;28;20049;-85
2023/09/19 04:37:07;;;;;;;4.53;0.68;;;13.80;95.20;;;;;;5031148;28;20534;-85
2023/09/19 04:39:34;;;;;;;6.07;0.70;;;13.90;95.20;;;;;;5015583;28;20060;-85
2023/09/19 04:42:01;;;;;;;6.60;0.70;;;13.80;95.10;;;;;;5032713;28;20391;-85
2023/09/19 04:44:29;;;;;;;2.97;0.63;;;13.80;95.00;;;;;;5016814;28;20052;-84
2023/09/19 04:46:56;;;;;;;3.83;0.50;;;13.80;95.00;;;;;;5026306;28;20053;-85
2023/09/19 04:49:24;;;;;;;5.47;0.77;;;13.80;95.00;;;;;;5029373;28;20123;-85
2023/09/19 04:51:51;;;;;;;4.93;0.77;;;13.80;94.80;;;;;;5022868;28;20045;-84
2023/09/19 04:54:18;;;;;;;5.60;0.82;;;13.80;94.80;;;;;;5028791;28;20049;-84
2023/09/19 04:56:45;;;;;;;6.80;0.95;;;13.70;94.70;;;;;;5041805;28;20140;-85
2023/09/19 04:59:12;;;;;;;3.38;0.50;;;13.80;94.60;;;;;;5040899;28;20056;-84
2023/09/19 05:01:39;;;;;;;5.80;0.70;;;13.80;94.50;;;;;;5005258;28;20040;-84
2023/09/19 05:04:08;;;;;;;8.73;1.83;;;13.80;94.30;;;;;;5032078;28;20121;-84
2023/09/19 05:06:35;;;;;;;3.72;0.77;;;13.80;94.20;;;;;;5033268;28;20056;-84
2023/09/19 05:09:05;;;;;;;5.63;0.70;;;13.80;94.20;;;;;;5018492;28;20041;-85
2023/09/19 05:11:33;;;;;;;5.28;0.65;;;13.80;94.20;;;;;;5029343;28;20076;-84
2023/09/19 05:14:03;;;;;;;3.53;0.70;;;13.80;94.30;;;;;;4988104;28;20462;-84
2023/09/19 05:16:34;;;;;;;6.60;0.80;;;13.80;94.30;;;;;;5032284;28;20399;-84
2023/09/19 05:19:01;;;;;;;4.47;0.52;;;13.80;94.20;;;;;;4996253;28;20084;-84
2023/09/19 05:21:31;;;;;;;2.95;0.85;;;13.80;94.20;;;;;;5013042;28;20045;-84
2023/09/19 05:23:58;;;;;;;6.55;0.85;;;13.80;94.30;;;;;;5058395;28;20037;-84
2023/09/19 05:26:25;;;;;;;5.10;0.40;;;13.80;94.40;;;;;;5033410;28;20474;-85
2023/09/19 05:28:52;;;;;;;2.95;0.35;;;13.80;94.40;;;;;;4988548;28;20038;-84
2023/09/19 05:31:20;;;;;;;2.60;0.50;;;13.80;94.40;;;;;;4997274;28;20073;-84
2023/09/19 05:33:47;;;;;;;2.03;0.40;;;13.80;94.40;;;;;;5041278;28;20049;-84
2023/09/19 05:36:16;;;;;;;4.72;0.65;;;13.80;94.30;;;;;;5018093;28;20462;-84
2023/09/19 05:38:44;;;;;;;3.55;0.88;;;13.90;94.30;;;;;;4992095;28;20445;-84
2023/09/19 05:41:13;;;;;;;1.95;0.40;;;13.90;94.30;;;;;;5049100;28;20048;-84
2023/09/19 05:43:41;;;;;;;2.72;0.50;;;13.90;94.30;;;;;;4987388;28;20488;-84
2023/09/19 05:46:09;;;;;;;2.50;0.43;;;13.90;94.30;;;;;;5019280;28;20091;-84
2023/09/19 05:48:37;;;;;;;6.07;0.82;;;13.90;94.20;;;;;;5029719;28;20132;-84
2023/09/19 05:51:06;;;;;;;2.58;0.40;;;14.00;94.10;;;;;;5032893;28;20118;-84
2023/09/19 05:53:33;;;;;;;3.28;0.63;;;14.00;94.10;;;;;;5009875;28;20056;-84
2023/09/19 05:56:00;;;;;;;3.63;0.43;;;14.00;94.10;;;;;;5018692;28;20045;-80
2023/09/19 05:58:28;;;;;;;4.15;0.50;;;14.00;94.10;;;;;;5025970;28;20087;-81
2023/09/19 06:00:57;;;;;;;4.88;0.80;;;14.00;94.10;;;;;;5014046;28;20037;-81
2023/09/19 06:03:24;;;;;;;2.80;0.65;;;14.00;94.10;;;;;;4993924;28;20045;-80
2023/09/19 06:05:52;;;;;;;5.10;0.57;;;14.00;94.00;;;;;;5009563;28;20121;-80
2023/09/19 06:08:20;;;;;;;2.30;0.60;;;14.10;94.00;;;;;;5035165;28;20452;-84
2023/09/19 06:10:47;;;;;;;5.28;0.45;;;14.10;94.00;;;;;;5012354;28;20045;-83
2023/09/19 06:13:18;;;;;;;5.30;0.88;;;14.10;94.10;;;;;;4988140;28;20457;-84
2023/09/19 06:15:47;;;;;;;4.05;0.55;;;14.10;94.00;;;;;;5010364;28;20411;-84
2023/09/19 06:18:19;;;;;;;4.93;0.65;;;14.20;94.00;;;;;;5049203;28;20037;-84
2023/09/19 06:20:48;;;;;;;1.63;0.43;;;14.20;94.00;;;;;;5012301;28;20049;-84
2023/09/19 06:23:15;;;;;;;5.38;0.60;;;14.20;94.00;;;;;;5001853;28;20400;-84
2023/09/19 06:25:43;;;;;;;4.35;0.60;;;14.30;94.00;;;;;;5018329;28;20034;-79
2023/09/19 06:28:12;;;;;;;5.10;0.60;;;14.30;93.90;;;;;;5022606;28;20045;-79
2023/09/19 06:30:42;;;;;;;5.35;1.10;;;14.30;93.90;;;;;;5016099;28;20403;-79
2023/09/19 06:33:11;;;;;;;7.90;0.90;;;14.40;93.80;;;;;;5047518;28;20064;-81
2023/09/19 06:35:39;;;;;;;4.03;0.57;;;14.40;93.80;;;;;;5055423;28;20554;-79
2023/09/19 06:38:07;;;;;;;4.82;0.73;;;14.50;93.80;;;;;;5053969;28;20084;-80
2023/09/19 06:40:34;;;;;;;2.33;1.02;;;14.50;93.80;;;;;;5041181;28;20056;-81
2023/09/19 06:43:02;;;;;;;2.25;0.40;;;14.60;93.80;;;;;;5020975;28;20045;-79
2023/09/19 06:45:31;;;;;;;5.45;1.00;;;14.60;93.80;;;;;;5035093;28;20073;-79
2023/09/19 06:48:00;;;;;;;7.63;1.05;;;14.60;93.70;;;;;;5000739;28;20080;-80
2023/09/19 06:50:27;;;;;;;4.65;0.55;;;14.70;93.60;;;;;;5027917;28;20107;-79
2023/09/19 06:52:57;;;;;;;5.40;1.00;;;14.70;93.50;;;;;;4990325;28;20057;-79
2023/09/19 06:55:27;;;;;;;4.30;0.88;;;14.80;93.60;;;;;;5033898;28;20100;-79
2023/09/19 06:57:55;;;;;;;4.53;0.40;;;14.80;93.50;;;;;;5030742;28;20050;-79
2023/09/19 07:00:23;;;;;;;4.78;0.80;;;14.90;93.50;;;;;;4996923;28;20045;-79
2023/09/19 07:03:08;;;;;;;6.35;0.70;;;14.90;93.50;;;;;;5030919;28;20041;-81
2023/09/19 07:05:37;;;;;;;2.55;0.50;;;15.00;93.50;;;;;;5034814;28;20121;-80
2023/09/19 07:08:09;;;;;;;6.18;0.63;;;15.00;93.50;;;;;;5014945;28;20045;-80
2023/09/19 07:10:48;;;;;;;7.10;0.60;;;15.10;93.50;;;;;;5015752;28;20045;-80
2023/09/19 07:13:17;;;;;;;3.08;0.68;;;15.10;93.50;;;;;;5048046;28;20139;-81
2023/09/19 07:15:47;;;;;;;4.75;0.57;;;15.10;93.50;;;;;;5028978;28;20510;-80
2023/09/19 07:18:16;;;;;;;4.57;0.60;;;15.20;93.50;;;;;;5001830;28;20149;-80
2023/09/19 07:20:53;;;;;;;7.15;0.93;;;15.20;93.50;;;;;;5019911;28;20037;-81
2023/09/19 07:23:22;;;;;;;3.70;0.65;;;15.20;93.40;;;;;;5040072;28;20037;-80
2023/09/19 07:25:50;;;;;;;1.83;0.60;;;15.30;93.40;;;;;;5032845;28;20127;-80
2023/09/19 07:28:18;;;;;;;6.20;0.70;;;15.40;93.40;;;;;;5049135;28;20051;-80
2023/09/19 07:30:45;;;;;;;4.53;0.70;;;15.40;93.40;;;;;;5053089;28;20091;-81
2023/09/19 07:33:12;;;;;;;7.65;0.93;;;15.50;93.40;;;;;;5049337;28;20375;-80
2023/09/19 07:35:40;;;;;;;3.97;0.80;;;15.50;93.30;;;;;;5003477;28;20147;-82
2023/09/19 07:38:07;;;;;;;5.80;0.57;;;15.60;93.20;;;;;;5036692;28;20077;-83
2023/09/19 07:40:34;;;;;;;5.25;0.50;;;15.70;93.20;;;;;;5019443;28;20049;-83
2023/09/19 07:43:02;;;;;;;4.85;0.60;;;15.70;93.10;;;;;;5009950;28;20444;-83
2023/09/19 07:45:31;;;;;;;5.78;0.80;;;15.80;93.00;;;;;;5039570;28;20081;-83
2023/09/19 07:48:01;;;;;;;4.53;0.90;;;15.80;92.80;;;;;;5038828;28;20046;-83
2023/09/19 07:50:28;;;;;;;5.38;0.60;;;15.90;92.80;;;;;;5037876;28;20037;-83
2023/09/19 07:52:56;;;;;;;3.33;0.70;;;15.90;92.80;;;;;;5015083;28;20041;-83
2023/09/19 07:55:23;;;;;;;4.22;0.75;;;16.00;92.80;;;;;;4998102;28;20045;-83
2023/09/19 07:57:54;;;;;;;5.47;1.02;;;16.00;92.80;;;;;;5035210;28;20414;-83
2023/09/19 08:00:24;;;;;;;5.15;0.75;;;16.00;92.60;;;;;;5019045;28;20059;-83
2023/09/19 08:02:52;;;;;;;7.57;0.90;;;16.10;92.60;;;;;;5012901;28;20048;-83
2023/09/19 08:05:24;;;;;;;5.32;0.60;;;16.10;92.50;;;;;;5019796;28;20551;-83
2023/09/19 08:07:56;;;;;;;4.47;1.00;;;16.20;92.60;;;;;;5005325;28;20488;-83
2023/09/19 08:10:27;;;;;;;2.45;0.55;;;16.20;92.60;;;;;;5027549;28;20045;-84
2023/09/19 08:12:57;;;;;;;7.47;0.80;;;16.30;92.60;;;;;;5032262;28;20047;-84
2023/09/19 08:15:33;;;;;;;4.30;0.82;;;16.30;92.40;;;;;;5005193;28;20045;-84
2023/09/19 08:18:04;;;;;;;6.15;0.80;;;16.30;92.40;;;;;;5013971;28;20091;-82
2023/09/19 08:20:32;;;;;;;6.25;0.82;;;16.40;92.30;;;;;;5019394;28;20127;-83
2023/09/19 08:22:59;;;;;;;5.97;1.35;;;16.40;92.30;;;;;;5007988;28;20133;-87
2023/09/19 08:25:48;;;;;;;7.03;1.15;;;16.50;92.20;;;;;;5030143;28;20102;-85
2023/09/19 08:28:30;;;;;;;5.70;0.70;;;16.50;92.10;;;;;;5066461;28;20055;-88
2023/09/19 08:31:35;;;;;;;4.68;0.70;;;16.60;92.00;;;;;;5005769;28;20213;-88
2023/09/19 08:34:35;;;;;;;3.25;0.77;;;16.70;92.00;;;;;;5039192;28;20044;-88
2023/09/19 08:37:11;;;;;;;6.25;0.75;;;16.80;91.90;;;;;;5036592;28;20045;-87
2023/09/19 08:39:59;;;;;;;5.57;1.02;;;16.80;91.80;;;;;;5023664;28;20051;-86
2023/09/19 08:42:26;;;;;;;5.45;1.23;;;16.90;91.80;;;;;;5028962;28;20096;-87
2023/09/19 08:44:55;;;;;;;5.43;1.00;;;17.00;91.80;;;;;;5038101;28;20491;-87
2023/09/19 08:47:57;;;;;;;5.47;0.70;;;17.00;91.70;;;;;;5039281;28;20501;-87
2023/09/19 08:50:29;;;;;;;3.88;1.13;;;17.10;91.60;;;;;;5020424;28;20049;-88
2023/09/19 08:53:31;;;;;;;5.28;0.80;;;17.20;91.60;;;;;;5032462;28;20483;-86
2023/09/19 08:56:11;;;;;;;6.75;0.55;;;17.20;91.50;;;;;;5020283;28;20080;-88
2023/09/19 08:58:54;;;;;;;2.35;0.50;;;17.30;91.40;;;;;;5015118;28;20053;-89
2023/09/19 09:01:25;;;;;;;2.90;0.55;;;17.40;91.40;;;;;;5046893;28;20049;-87
2023/09/19 09:04:04;;;;;;;4.97;0.82;;;17.40;91.40;;;;;;5041507;28;20045;-86
2023/09/19 09:06:35;;;;;;;4.15;1.02;;;17.40;91.30;;;;;;5021410;28;20099;-87
2023/09/19 09:09:25;;;;;;;5.75;0.98;;;17.50;91.30;;;;;;4948992;28;20080;-85
2023/09/19 09:12:07;;;;;;;4.67;0.97;;;17.50;91.20;;;;;;5036531;28;20059;-86
2023/09/19 09:14:34;;;;;;;4.85;1.00;;;17.50;91.30;;;;;;5022266;28;20061;-81
2023/09/19 09:17:22;;;;;;;3.08;0.50;;;17.60;91.20;;;;;;5031128;28;20065;-89
2023/09/19 09:19:49;;;;;;;5.03;0.70;;;17.60;91.20;;;;;;5015869;28;20051;-88
2023/09/19 09:22:25;;;;;;;4.53;0.95;;;17.60;91.30;;;;;;5021388;28;20041;-88
2023/09/19 09:25:09;;;;;;;4.28;0.93;;;17.60;91.10;;;;;;5023399;28;20045;-84
2023/09/19 09:27:44;;;;;;;4.63;0.77;;;17.60;90.80;;;;;;5043514;28;20041;-86
2023/09/19 09:30:37;;;;;;;5.85;0.90;;;17.70;90.70;;;;;;5045107;28;20048;-84
2023/09/19 09:33:11;;;;;;;5.40;0.80;;;17.90;90.60;;;;;;5009331;28;20053;-84
2023/09/19 09:35:56;;;;;;;3.70;0.70;;;18.00;90.50;;;;;;5026070;28;20065;-85
2023/09/19 09:38:37;;;;;;;;;;;;;;;;;;;;;
2023/09/19 09:41:40;;;;;;;6.03;0.60;;;18.40;89.90;;;;;;5031359;28;20053;-81
2023/09/19 09:44:19;;;;;;;6.13;1.10;;;18.60;89.70;;;;;;5046435;28;20117;-86
2023/09/19 09:49:33;;;;;;;5.30;1.08;;;18.70;87.90;;;;;;5039043;28;20061;-88
2023/09/19 09:52:16;;;;;;;6.25;1.20;;;18.60;88.40;;;;;;5015392;28;20107;-88
2023/09/19 09:55:08;;;;;;;5.28;1.13;;;18.60;88.80;;;;;;5011170;28;20458;-86
2023/09/19 09:57:41;;;;;;;5.95;1.20;;;18.60;88.10;;;;;;4978954;28;20435;-87
2023/09/19 10:02:40;;;;;;;4.75;0.85;;;18.70;85.80;;;;;;5025115;28;20219;-89
2023/09/19 10:05:22;;;;;;;9.40;1.00;;;18.70;86.00;;;;;;5034155;28;20049;-88
2023/09/19 10:08:00;;;;;;;3.38;0.88;;;18.80;85.80;;;;;;5050625;28;20080;-84
2023/09/19 10:13:17;;;;;;;4.55;0.70;;;18.90;86.00;;;;;;5030267;28;20470;-87
2023/09/19 10:15:51;;;;;;;5.32;0.93;;;19.00;85.70;;;;;;5011365;28;20072;-89
2023/09/19 10:18:23;;;;;;;7.30;0.93;;;19.00;85.60;;;;;;5004594;28;20041;-91
2023/09/19 10:20:52;;;;;;;5.43;1.02;;;19.00;85.80;;;;;;4997510;28;20045;-90
2023/09/19 10:23:45;;;;;;;5.57;0.82;;;19.00;85.80;;;;;;5010669;28;20048;-83
2023/09/19 10:26:23;;;;;;;5.25;1.00;;;19.10;85.40;;;;;;5041594;28;20053;-84
2023/09/19 10:28:56;;;;;;;2.95;0.65;;;19.20;85.40;;;;;;5048260;28;20407;-87
2023/09/19 10:31:34;;;;;;;4.60;0.80;;;19.30;85.10;;;;;;5023163;28;20487;-89
2023/09/19 10:34:11;;;;;;;2.83;0.63;;;19.40;85.00;;;;;;5038846;28;20049;-83
2023/09/19 10:36:49;;;;;;;2.90;0.60;;;19.40;84.80;;;;;;5005854;28;20132;-86
2023/09/19 10:39:22;;;;;;;6.90;1.08;;;19.60;84.60;;;;;;5066198;28;20037;-86
2023/09/19 10:42:02;;;;;;;3.20;0.70;;;19.70;84.40;;;;;;5034184;28;20045;-85
2023/09/19 10:44:33;;;;;;;5.97;1.48;;;19.70;83.90;;;;;;5047993;28;20052;-85
2023/09/19 10:47:00;;;;;;;4.90;0.63;;;19.70;83.00;;;;;;5039084;28;20051;-85
2023/09/19 10:49:27;;;;;;;3.40;0.82;;;19.80;82.80;;;;;;4989472;28;20049;-85
2023/09/19 10:51:59;;;;;;;6.15;0.80;;;19.90;82.70;;;;;;5017520;28;20049;-85
2023/09/19 10:54:36;;;;;;;4.00;0.80;;;19.90;82.60;;;;;;5057087;28;20056;-87
2023/09/19 10:57:09;;;;;;;2.50;0.47;;;19.90;82.50;;;;;;5058161;28;20049;-85
2023/09/19 10:59:39;;;;;;;4.43;0.75;;;19.80;82.30;;;;;;5054478;28;20095;-82
2023/09/19 11:02:17;;;;;;;5.53;0.75;;;19.80;82.80;;;;;;5053685;28;20477;-82
2023/09/19 11:04:48;;;;;;;4.70;0.50;;;19.80;82.50;;;;;;5054503;28;20041;-87
2023/09/19 11:07:15;;;;;;;3.53;0.60;;;19.80;83.00;;;;;;5022489;28;20052;-92
2023/09/19 11:17:32;;;;;;;3.92;0.68;;;19.60;83.80;;;;;;5019466;28;20038;-88
2023/09/19 11:22:53;;;;;;;4.32;0.90;;;19.60;83.50;;;;;;5043412;28;20499;-85
2023/09/19 11:25:30;;;;;;;2.65;0.60;;;19.70;83.10;;;;;;5052154;28;20107;-88
2023/09/19 11:28:15;;;;;;;4.85;0.90;;;19.80;82.80;;;;;;5049142;28;20041;-87
2023/09/19 11:31:19;;;;;;;3.60;0.77;;;19.80;82.90;;;;;;5039887;28;20060;-87
2023/09/19 11:34:08;;;;;;;4.40;0.70;;;19.90;82.80;;;;;;5021154;28;20045;-91
2023/09/19 11:36:36;;;;;;;4.25;0.60;;;20.00;82.20;;;;;;5024325;28;20052;-89
2023/09/19 11:39:29;;;;;;;3.70;0.70;;;20.10;81.90;;;;;;5018120;28;20060;-88
2023/09/19 11:42:45;;;;;;;2.60;0.70;;;20.10;81.40;;;;;;5018260;28;20045;-84
2023/09/19 11:45:45;;;;;;;2.83;0.70;;;20.10;81.70;;;;;;5023085;28;20129;-85
2023/09/19 11:48:19;;;;;;;4.43;0.90;;;20.10;81.50;;;;;;5045594;28;20073;-84
2023/09/19 11:50:48;;;;;;;3.05;0.80;;;20.20;80.90;;;;;;5039857;28;20509;-83
2023/09/19 11:53:32;;;;;;;2.75;0.52;;;20.20;80.90;;;;;;5040374;28;20123;-88
2023/09/19 11:56:10;;;;;;;2.78;0.65;;;20.20;80.50;;;;;;5034247;28;20060;-88
2023/09/19 11:59:46;;;;;;;2.60;0.40;;;20.20;80.70;;;;;;5045138;28;20041;-90
2023/09/19 12:03:21;;;;;;;4.05;0.45;;;20.30;79.90;;;;;;4934717;28;20050;-83
2023/09/19 12:06:38;;;;;;;2.58;0.57;;;20.50;79.70;;;;;;4939060;29;20052;-83
2023/09/19 12:14:28;;;;;;;3.53;0.60;;;20.70;79.50;;;;;;4923868;29;20493;-84
2023/09/19 12:17:12;;;;;;;4.38;0.77;;;20.60;78.70;;;;;;4918757;29;20062;-91
2023/09/19 12:21:00;;;;;;;4.82;0.60;;;20.70;78.60;;;;;;4915244;29;20056;-83
2023/09/19 12:23:44;;;;;;;3.10;0.40;;;20.60;77.90;;;;;;4918860;29;20111;-83
2023/09/19 12:26:13;;;;;;;1.73;0.40;;;20.50;78.50;;;;;;4933617;29;20055;-86
2023/09/19 12:28:42;;;;;;;1.58;0.32;;;20.40;79.10;;;;;;4917879;29;20044;-84
2023/09/19 12:31:26;;;;;;;3.90;0.60;;;20.40;78.90;;;;;;4912892;29;20047;-84
2023/09/19 12:34:59;;;;;;;5.03;0.77;;;20.60;78.20;;;;;;4970370;28;20047;-84
2023/09/19 12:38:35;;;;;;;3.50;0.50;;;20.70;77.50;;;;;;4918251;29;20054;-87
2023/09/19 12:41:06;;;;;;;4.80;0.50;;;20.60;77.60;;;;;;4943117;28;20070;-87
2023/09/19 12:48:22;;;;;;;2.08;0.40;;;20.40;77.30;;;;;;5025374;28;19910;-87
2023/09/19 12:51:10;;;;;;;2.80;0.40;;;20.20;78.30;;;;;;5000407;28;20045;-87
2023/09/19 12:56:54;;;;;;;1.45;0.30;;;20.00;78.90;;;;;;4982603;28;20108;-90
2023/09/19 12:59:31;;;;;;;1.35;0.30;;;20.00;79.20;;;;;;4989122;28;20108;-88
2023/09/19 13:02:23;;;;;;;;;;;;;;;;;;;;;
2023/09/19 13:05:10;;;;;;;1.95;0.60;;;20.00;78.80;;;;;;5020660;28;20120;-92
2023/09/19 13:07:51;;;;;;;1.33;0.30;;;19.90;79.10;;;;;;4998697;28;20081;-89
2023/09/19 13:10:27;;;;;;;2.58;0.20;;;19.90;79.40;;;;;;5032366;28;20136;-89
2023/09/19 13:13:27;;;;;;;2.95;0.30;;;19.80;79.70;;;;;;5003022;28;20491;-86
2023/09/19 13:15:58;;;;;;;1.73;0.40;;;19.90;79.30;;;;;;4996435;28;20054;-86
2023/09/19 13:18:29;;;;;;;1.33;0.20;;;19.90;79.00;;;;;;5012846;28;20144;-88
2023/09/19 13:24:51;;;;;;;3.00;0.40;;;20.10;78.40;;;;;;4969293;28;20057;-93
2023/09/19 13:27:23;;;;;;;2.13;0.28;;;20.20;78.50;;;;;;4906062;29;20051;-83
2023/09/19 13:30:25;;;;;;;1.73;0.40;;;20.10;78.10;;;;;;4907715;29;20102;-84
2023/09/19 13:33:20;;;;;;;1.88;0.30;;;20.10;78.00;;;;;;4945682;29;20554;-83
2023/09/19 13:35:56;;;;;;;1.80;0.30;;;20.10;78.70;;;;;;5011646;28;20057;-83
2023/09/19 13:38:45;;;;;;;;;;;;;;;;;;;;;
2023/09/19 13:41:36;;;;;;;1.38;0.20;;;20.00;78.90;;;;;;5037816;28;20052;-89
2023/09/19 13:48:07;;;;;;;1.23;0.10;;;19.90;79.40;;;;;;5026594;28;20464;-95
2023/09/19 13:55:19;;;;;;;;;;;19.80;79.80;;;;;;5001367;28;20386;-89
2023/09/19 13:58:12;;;;;;;0.70;0.10;;;19.70;79.90;;;;;;5042169;28;19968;-95
2023/09/19 14:00:48;;;;;;;1.15;0.20;;;19.80;79.70;;;;;;5036322;28;20049;-94
2023/09/19 14:03:16;;;;;;;1.13;0.15;;;19.90;79.90;;;;;;5035153;28;20128;-87
2023/09/19 14:05:46;;;;;;;1.58;0.17;;;20.00;79.70;;;;;;5029679;28;20075;-88
2023/09/19 14:08:13;;;;;;;1.75;0.20;;;20.20;78.90;;;;;;5038165;28;20044;-89
2023/09/19 14:10:44;;;;;;;3.28;0.22;;;20.30;78.50;;;;;;5030139;28;20069;-90
2023/09/19 14:13:13;;;;;;;1.52;0.20;;;20.50;78.10;;;;;;5020154;28;20136;-87